Terminal Aerodrome Forecast
Issued by NWS

Home | Current Version | Previous Version | Graphics & Text | Print | Product List | Glossary On
Versions: 1 2 3 4 5 6 7 8 9 10 11 12 13 14 15 16 17 18
000
FTUS43 KICT 302300
TAFHUT
TAF
KHUT 302339Z 3100/3124 16008KT P6SM SKC
     FM311100 17010KT P6SM SCT100
     FM311600 18021G31KT P6SM SCT150=

USA.gov is the U.S. government's official web portal to all federal, state and local government web resources and services.